Beatty, Nevada Weather observations

Data are for observation ending at time listed.
 Day   Time    Ave.   Ave.  Ave.  Vector   Max.   Stn.    Total    Solar   Ave.  
  of    of     Air    Rel.  Wind   Wind    Wind   Baro.  Precip.   Rad.    Soil  
Year   Day     Temp.  Hum.  Speed  Dir.    Gust   Pres.                    Temp. 
2016   (PST)    F      %     mph   deg.    mph     mb.     in.     W/m2     F   
------------------------------------------------------------------------------
 243    7:10   77.0    15    4.5    31      9.1   901.4    0.00      53    85.1
 243    7:20   77.3    15    4.6    26      9.1   901.4    0.00      59    85.0
 243    7:30   77.7    15    4.0    29      9.0   901.5    0.00      58    85.0
 243    7:40   79.0    14    3.7    28      7.5   901.4    0.00     225    85.0
 243    7:50   80.6    14    3.2    46      6.4   901.4    0.00     335    84.9
 243    8:00   82.0    13    3.3    48      6.9   901.4    0.00     394    84.8
 243    8:10   83.1    13    2.6    63      6.6   901.4    0.00     417    84.8
 243    8:20   84.2    13    2.4    58      5.3   901.3    0.00     442    84.7
 243    8:30   85.7    12    2.1    44      5.0   901.3    0.00     467    84.6
 243    8:40   86.8    12    1.8    51      4.4   901.2    0.00     493    84.6
 243    8:50   88.0    12    1.8   345      3.1   901.1    0.00     512    84.5
 243    9:00   89.9    11    0.9    44      2.6   901.1    0.00     538    84.5
 243    9:10   91.6    11    0.8   117      2.4   901.1    0.00     556    84.4
 243    9:20   92.4    11    1.0   248      2.5   901.0    0.00     576    84.3
 243    9:30   93.5    10    0.7   207      2.8   900.9    0.00     595    84.3
 243    9:40   94.2    10    3.0   177      6.3   900.9    0.00     610    84.2
 243    9:50   93.9    10    3.7   200      8.6   900.8    0.00     628    84.2
 243   10:00   93.7    10    4.1   215      9.9   900.7    0.00     643    84.1
 243   10:10   94.2    10    6.0   214     14.2   900.6    0.00     655    84.1
 243   10:20   95.4    10    6.2   192     11.8   900.5    0.00     669    84.1
 243   10:30   96.2    10    6.3   199     12.1   900.4    0.00     681    84.0
 243   10:40   96.4    10    6.3   205     11.8   900.3    0.00     692    84.0
 243   10:50   96.5    10    6.5   196     12.6   900.3    0.00     702    84.0
 243   11:00   96.7    10    6.3   186     10.7   900.2    0.00     711    84.0
 243   11:10   97.3    10    6.3   174     13.2   900.1    0.00     713    84.0
 243   11:20   97.6    10    5.8   183     12.5   900.0    0.00     724    84.0
 243   11:30   97.9    10    6.8   196     13.6   899.9    0.00     728    84.0
 243   11:40   98.2     9    5.4   173     16.1   899.8    0.00     729    84.0
 243   11:50   98.0     9    6.5   191     12.3   899.6    0.00     730    84.1
 243   12:00   98.6     9    5.7   187     12.4   899.5    0.00     729    84.1
 243   12:10   98.6     9    6.6   200     13.1   899.4    0.00     729    84.2
 243   12:20   98.2     9    8.8   169     16.7   899.3    0.00     733    84.2
 243   12:30   98.2     9    7.3   179     17.6   899.2    0.00     729    84.3
 243   12:40   98.1     9    6.6   164     14.8   899.1    0.00     720    84.4
 243   12:50   98.7     9    5.7   172     17.7   898.9    0.00     723    84.5
 243   13:00   98.4     9    6.3   184     17.2   898.8    0.00     714    84.5
 243   13:10   99.0     9    7.3   173     17.5   898.6    0.00     692    84.7
 243   13:20   98.8     9    8.3   173     17.8   898.4    0.00     677    84.8
 243   13:30   98.5     9    5.8   168     14.8   898.3    0.00     671    84.8
 243   13:40   98.9     9    5.9   192     12.0   898.2    0.00     658    85.0
 243   13:50   98.4     9    4.9   263     15.3   898.0    0.00     553    85.1
 243   14:00   98.9     9    4.6   218     11.0   897.9    0.00     255    85.2
 243   14:10   99.5     9    9.0   214     16.7   897.7    0.00      77    85.3
 243   14:20   99.0     8    6.6   207     14.0   897.7    0.00     533    85.4
 243   14:30   99.4     8    7.4   192     13.6   897.6    0.00     573    85.5
 243   14:40   99.0     8    4.9   164     12.0   897.5    0.00     550    85.7
 243   14:50   99.1     8    4.5   185     12.2   897.4    0.00     536    85.8
 243   15:00   99.0     9    6.7   198     17.9   897.4    0.00     442    85.9
 243   15:10   98.9     9    5.4   205     11.8   897.4    0.00     112    86.0
 243   15:20   98.4     9    9.7   217     16.7   897.4    0.00     100    86.1
 243   15:30   98.2     9    6.6   209     12.0   897.3    0.00      67    86.2
 243   15:40   97.6     9    4.3   235     12.8   897.1    0.00      51    86.3
 243   15:50   98.5     9    7.6   196     16.3   897.1    0.00      57    86.4
 243   16:00   98.0     9    6.8   212     16.1   897.1    0.00      33    86.5
 243   16:10   98.0     9    6.2   205     12.8   897.0    0.00      32    86.6
 243   16:20   98.5     9    4.2   219      8.1   897.0    0.00      46    86.7
 243   16:30   98.0     9    3.8   248      9.9   896.9    0.00     140    86.8
 243   16:40   98.2     9    3.5   244      8.5   896.9    0.00     105    86.9
 243   16:50   99.3     9    4.1   210      7.5   896.8    0.00     203    87.0
 243   17:00  100.0     9    2.7   187      7.5   896.7    0.00     184    87.1
 243   17:10   98.7     8    4.9   130     10.8   896.7    0.00     159    87.1
 243   17:20   98.6     9    5.0   200     13.9   896.6    0.00     133    87.2
 243   17:30   98.0     9    5.2   225     12.4   896.4    0.00     107    87.2
 243   17:40   97.2     9    4.3   219      9.1   896.4    0.00      81    87.3
 243   17:50   97.4     9    2.8   213      5.6   896.3    0.00      51    87.3
 243   18:00   95.8    10    3.6   220      8.8   896.3    0.00      14    87.4
 243   18:10   94.4    10    3.8   209      5.9   896.3    0.00       9    87.4
 243   18:20   93.6    10    2.2   217      4.7   896.4    0.00       5    87.4
 243   18:30   92.5    11    0.8   220      2.7   896.4    0.00       2    87.5
 243   18:40   90.0    13    0.1   300      0.7   896.5    0.00       0    87.5
 243   18:50   87.8    14    0.9   309      1.8   896.6    0.00       0    87.6
 243   19:00   86.8    14    0.8   322      2.1   896.6    0.00       0    87.6
 243   19:10   85.9    15    0.7   322      2.1   896.8    0.00       0    87.6
 243   19:20   85.6    14    1.1   317      2.0   896.9    0.00       0    87.6
 243   19:30   84.3    14    1.1   356      1.9   897.1    0.00       0    87.6
 243   19:40   83.6    14    1.0    39      1.8   897.1    0.00       0    87.7
 243   19:50   82.9    15    1.4   358      3.1   897.2    0.00       0    87.7
 243   20:00   82.9    14    1.1   359      4.2   897.3    0.00       0    87.7
 243   20:10   82.5    14    1.6   356      4.5   897.4    0.00       0    87.7
 243   20:20   82.0    15    1.1    35      2.4   897.5    0.00       0    87.7
 243   20:30   81.1    15    1.7    26      3.7   897.5    0.00       0    87.7
 243   20:40   81.0    14    2.1    56      3.8   897.6    0.00       0    87.7
 243   20:50   81.2    14    1.7    30      3.7   897.5    0.00       0    87.7
 243   21:00   80.4    15    2.3    42      5.6   897.5    0.00       0    87.7
 243   21:10   81.4    13    2.4    42      5.0   897.6    0.00       0    87.7
 243   21:20   81.1    14    2.6     8      5.0   897.6    0.00       0    87.7
 243   21:30   80.0    15    2.0    38      4.2   897.7    0.00       0    87.7
 243   21:40   81.5    14    2.4    39      4.5   897.7    0.00       0    87.7
 243   21:50   81.7    15    2.1   333      7.9   897.7    0.00       0    87.7
 243   22:00   88.4    12    5.5   157     11.4   897.7    0.00       0    87.7
 243   22:10   91.1    12    6.8   163     14.1   897.7    0.00       0    87.7
 243   22:20   91.4    12    8.5   164     18.0   897.7    0.00       0    87.7
 243   22:30   91.5    12    8.3   161     17.7   897.8    0.00       0    87.7
 243   22:40   91.5    12    8.1   164     15.6   897.8    0.00       0    87.7
 243   22:50   91.5    12    6.7   161     14.8   897.7    0.00       0    87.7
 243   23:00   89.7    12    3.3   203     11.0   897.8    0.00       0    87.7
 243   23:10   86.6    13    2.0   199      5.1   897.9    0.00       0    87.7
 243   23:20   85.5    14    2.0   190      5.0   897.9    0.00       0    87.7
 243   23:30   85.2    14    1.2   175      5.8   897.9    0.00       0    87.6
 243   23:40   88.2    13    6.7   170     15.6   897.9    0.00       0    87.6
 243   23:50   89.8    12    6.1   164     12.6   897.9    0.00       0    87.6
 244    0:00   89.1    13    4.6   168     12.5   897.9    0.00       0    87.6
 244    0:10   88.5    13    4.6   175     11.7   897.9    0.00       0    87.5
 244    0:20   89.3    13    8.0   163     14.8   897.8    0.00       0    87.5
 244    0:30   89.5    13    7.6   175     15.1   897.8    0.00       0    87.5
 244    0:40   86.3    14    4.3   221      8.3   897.9    0.00       0    87.4
 244    0:50   84.1    14    3.1   176      5.6   898.0    0.00       0    87.4
 244    1:00   83.6    14    3.5   136      6.4   898.0    0.00       0    87.4
 244    1:10   82.5    16    1.5   110      4.4   898.0    0.00       0    87.4
 244    1:20   79.5    20    1.2   332      2.1   898.0    0.00       0    87.4
 244    1:30   77.8    19    2.4    50      5.9   898.0    0.00       0    87.4
 244    1:40   78.7    18    1.9    30      4.6   898.0    0.00       0    87.4
 244    1:50   77.6    19    1.6     3      3.0   897.9    0.00       0    87.3
 244    2:00   76.4    20    2.0    10      3.7   897.9    0.00       0    87.3
 244    2:10   75.5    21    1.4   351      3.1   897.9    0.00       0    87.2
 244    2:20   75.4    22    1.0   351      2.1   898.0    0.00       0    87.2
 244    2:30   75.3    22    1.1    47      2.2   898.0    0.00       0    87.2
 244    2:40   75.6    21    1.1    42      2.9   898.0    0.00       0    87.2
 244    2:50   75.4    21    1.4    31      2.6   898.0    0.00       0    87.1
 244    3:00   73.5    24    0.5   328      1.6   898.0    0.00       0    87.1
 244    3:10   71.5    26    0.9   350      3.3   898.0    0.00       0    87.1
 244    3:20   71.2    25    0.9    23      3.1   898.1    0.00       0    87.1
 244    3:30   70.6    27    0.5   347      1.5   898.1    0.00       0    87.1
 244    3:40   70.3    26    1.3    35      2.3   898.2    0.00       0    87.0
 244    3:50   71.0    25    1.4    40      2.8   898.2    0.00       0    87.0
 244    4:00   70.6    25    1.8    39      3.1   898.2    0.00       0    86.9
 244    4:10   69.3    25    2.1    52      3.7   898.2    0.00       0    86.9
 244    4:20   67.7    26    2.1    60      4.1   898.3    0.00       0    86.9
 244    4:30   67.5    27    1.5    49      3.4   898.3    0.00       0    86.8
 244    4:40   67.6    27    1.9    67      3.5   898.4    0.00       0    86.8
 244    4:50   67.4    28    1.9    42      4.2   898.4    0.00       0    86.8
 244    5:00   67.4    27    2.1    58      3.9   898.5    0.00       0    86.8
 244    5:10   67.1    28    1.9    58      3.8   898.5    0.00       0    86.7
 244    5:20   67.0    28    1.7    56      3.7   898.6    0.00       1    86.7
 244    5:30   66.7    28    1.9    62      4.7   898.7    0.00       5    86.7
 244    5:40   66.9    28    1.7    58      2.9   898.8    0.00       7    86.6
 244    5:50   66.9    29    1.4    16      3.2   898.9    0.00      12    86.6
 244    6:00   66.9    29    1.6    56      3.1   899.0    0.00      15    86.6
 244    6:10   67.7    28    1.7    49      3.4   899.0    0.00      20    86.5
 244    6:20   69.1    27    2.4    73      4.3   899.1    0.00      39    86.5
 244    6:30   69.7    27    1.6    75      3.5   899.1    0.00      38    86.4
 244    6:40   72.0    26    1.5    47      4.8   899.1    0.00      26    86.4
 244    6:50   74.2    24    2.8     6      5.4   899.1    0.00      64    86.3
 244    7:00   75.1    24    2.1   353      5.6   899.1    0.00      35    86.3

Return to Beatty, Nevada graphs page.


Western Regional Climate Center,wrcc@dri.edu